sensor_id;sensor_type;location;lat;lon;timestamp;P1;durP1;ratioP1;P2;durP2;ratioP2
52642;SDS011;38531;53.296;6.614;2023-07-13T00:00:03;1120.10;;;692.22;;
52642;SDS011;38531;53.296;6.614;2023-07-13T00:02:34;1009.15;;;692.92;;
52642;SDS011;38531;53.296;6.614;2023-07-13T00:05:00;1281.60;;;697.47;;
52642;SDS011;38531;53.296;6.614;2023-07-13T00:07:26;1132.25;;;535.30;;
52642;SDS011;38531;53.296;6.614;2023-07-13T00:09:51;1302.13;;;684.15;;
52642;SDS011;38531;53.296;6.614;2023-07-13T00:12:30;1416.22;;;677.58;;
52642;SDS011;38531;53.296;6.614;2023-07-13T00:14:59;1209.10;;;674.95;;
52642;SDS011;38531;53.296;6.614;2023-07-13T00:17:26;1112.75;;;683.78;;
52642;SDS011;38531;53.296;6.614;2023-07-13T00:19:53;968.88;;;675.35;;
52642;SDS011;38531;53.296;6.614;2023-07-13T00:22:20;801.38;;;664.53;;
52642;SDS011;38531;53.296;6.614;2023-07-13T00:24:46;785.65;;;486.33;;
52642;SDS011;38531;53.296;6.614;2023-07-13T00:27:12;807.03;;;490.83;;
52642;SDS011;38531;53.296;6.614;2023-07-13T00:29:38;986.22;;;675.58;;
52642;SDS011;38531;53.296;6.614;2023-07-13T00:32:04;885.97;;;673.90;;
52642;SDS011;38531;53.296;6.614;2023-07-13T00:34:31;861.35;;;681.55;;
52642;SDS011;38531;53.296;6.614;2023-07-13T00:36:57;815.42;;;673.85;;
52642;SDS011;38531;53.296;6.614;2023-07-13T00:39:23;642.38;;;456.58;;
52642;SDS011;38531;53.296;6.614;2023-07-13T00:41:50;758.97;;;668.63;;
52642;SDS011;38531;53.296;6.614;2023-07-13T00:44:19;791.05;;;489.05;;
52642;SDS011;38531;53.296;6.614;2023-07-13T00:46:48;942.53;;;687.03;;
52642;SDS011;38531;53.296;6.614;2023-07-13T00:49:20;1055.82;;;684.05;;
52642;SDS011;38531;53.296;6.614;2023-07-13T00:51:58;1005.20;;;679.38;;
52642;SDS011;38531;53.296;6.614;2023-07-13T00:54:30;868.22;;;495.30;;
52642;SDS011;38531;53.296;6.614;2023-07-13T00:57:00;975.10;;;686.25;;
52642;SDS011;38531;53.296;6.614;2023-07-13T00:59:28;919.92;;;684.15;;
52642;SDS011;38531;53.296;6.614;2023-07-13T01:01:55;723.38;;;474.35;;
52642;SDS011;38531;53.296;6.614;2023-07-13T01:04:23;796.90;;;490.38;;
52642;SDS011;38531;53.296;6.614;2023-07-13T01:06:50;806.08;;;490.70;;
52642;SDS011;38531;53.296;6.614;2023-07-13T01:09:15;967.53;;;683.17;;
52642;SDS011;38531;53.296;6.614;2023-07-13T01:11:42;814.42;;;487.65;;
52642;SDS011;38531;53.296;6.614;2023-07-13T01:14:10;923.72;;;673.97;;
52642;SDS011;38531;53.296;6.614;2023-07-13T01:16:36;775.92;;;488.70;;
52642;SDS011;38531;53.296;6.614;2023-07-13T01:19:06;775.72;;;475.10;;
52642;SDS011;38531;53.296;6.614;2023-07-13T01:21:43;742.80;;;474.35;;
52642;SDS011;38531;53.296;6.614;2023-07-13T01:24:18;884.63;;;674.22;;
52642;SDS011;38531;53.296;6.614;2023-07-13T01:26:44;863.28;;;676.80;;
52642;SDS011;38531;53.296;6.614;2023-07-13T01:29:10;720.45;;;474.70;;
52642;SDS011;38531;53.296;6.614;2023-07-13T01:31:36;837.58;;;670.58;;
52642;SDS011;38531;53.296;6.614;2023-07-13T01:34:01;671.65;;;461.85;;
52642;SDS011;38531;53.296;6.614;2023-07-13T01:36:27;815.42;;;673.78;;
52642;SDS011;38531;53.296;6.614;2023-07-13T01:38:53;709.88;;;469.73;;
52642;SDS011;38531;53.296;6.614;2023-07-13T01:41:18;861.35;;;675.42;;
52642;SDS011;38531;53.296;6.614;2023-07-13T01:43:44;845.83;;;671.03;;
52642;SDS011;38531;53.296;6.614;2023-07-13T01:46:10;704.10;;;467.35;;
52642;SDS011;38531;53.296;6.614;2023-07-13T01:48:35;817.30;;;671.85;;
52642;SDS011;38531;53.296;6.614;2023-07-13T01:51:01;669.45;;;463.20;;
52642;SDS011;38531;53.296;6.614;2023-07-13T01:53:27;671.80;;;459.85;;
52642;SDS011;38531;53.296;6.614;2023-07-13T01:55:52;753.33;;;668.97;;
52642;SDS011;38531;53.296;6.614;2023-07-13T01:58:18;760.78;;;673.78;;
52642;SDS011;38531;53.296;6.614;2023-07-13T02:00:44;599.80;;;451.25;;
52642;SDS011;38531;53.296;6.614;2023-07-13T02:03:12;581.65;;;445.42;;
52642;SDS011;38531;53.296;6.614;2023-07-13T02:05:43;600.00;;;452.98;;
52642;SDS011;38531;53.296;6.614;2023-07-13T02:08:09;774.63;;;672.05;;
52642;SDS011;38531;53.296;6.614;2023-07-13T02:10:35;648.55;;;459.00;;
52642;SDS011;38531;53.296;6.614;2023-07-13T02:13:02;761.55;;;675.50;;
52642;SDS011;38531;53.296;6.614;2023-07-13T02:15:29;742.95;;;655.53;;
52642;SDS011;38531;53.296;6.614;2023-07-13T02:17:55;621.63;;;462.88;;
52642;SDS011;38531;53.296;6.614;2023-07-13T02:20:22;755.22;;;671.65;;
52642;SDS011;38531;53.296;6.614;2023-07-13T02:22:47;759.85;;;677.05;;
52642;SDS011;38531;53.296;6.614;2023-07-13T02:25:13;606.83;;;428.70;;
52642;SDS011;38531;53.296;6.614;2023-07-13T02:27:39;614.42;;;440.95;;
52642;SDS011;38531;53.296;6.614;2023-07-13T02:30:05;629.97;;;458.13;;
52642;SDS011;38531;53.296;6.614;2023-07-13T02:32:31;762.85;;;675.78;;
52642;SDS011;38531;53.296;6.614;2023-07-13T02:34:57;592.35;;;451.08;;
52642;SDS011;38531;53.296;6.614;2023-07-13T02:37:23;582.03;;;423.77;;
52642;SDS011;38531;53.296;6.614;2023-07-13T02:39:48;579.78;;;428.15;;
52642;SDS011;38531;53.296;6.614;2023-07-13T02:42:14;570.58;;;423.15;;
52642;SDS011;38531;53.296;6.614;2023-07-13T02:44:40;749.53;;;670.33;;
52642;SDS011;38531;53.296;6.614;2023-07-13T02:47:05;742.45;;;665.80;;
52642;SDS011;38531;53.296;6.614;2023-07-13T02:49:31;735.28;;;659.13;;
52642;SDS011;38531;53.296;6.614;2023-07-13T02:51:57;558.63;;;424.50;;
52642;SDS011;38531;53.296;6.614;2023-07-13T02:54:23;736.03;;;660.40;;
52642;SDS011;38531;53.296;6.614;2023-07-13T02:56:48;543.88;;;436.30;;
52642;SDS011;38531;53.296;6.614;2023-07-13T02:59:14;513.92;;;411.48;;
52642;SDS011;38531;53.296;6.614;2023-07-13T03:01:40;726.03;;;655.58;;
52642;SDS011;38531;53.296;6.614;2023-07-13T03:04:06;707.72;;;638.67;;
52642;SDS011;38531;53.296;6.614;2023-07-13T03:06:32;465.80;;;399.95;;
52642;SDS011;38531;53.296;6.614;2023-07-13T03:08:58;726.38;;;658.20;;
52642;SDS011;38531;53.296;6.614;2023-07-13T03:11:25;469.80;;;415.77;;
52642;SDS011;38531;53.296;6.614;2023-07-13T03:13:51;721.40;;;654.85;;
52642;SDS011;38531;53.296;6.614;2023-07-13T03:16:17;477.02;;;418.88;;
52642;SDS011;38531;53.296;6.614;2023-07-13T03:18:43;472.10;;;414.17;;
52642;SDS011;38531;53.296;6.614;2023-07-13T03:21:09;487.77;;;421.05;;
52642;SDS011;38531;53.296;6.614;2023-07-13T03:23:35;479.38;;;401.30;;
52642;SDS011;38531;53.296;6.614;2023-07-13T03:26:02;728.35;;;659.10;;
52642;SDS011;38531;53.296;6.614;2023-07-13T03:28:32;465.25;;;395.75;;
52642;SDS011;38531;53.296;6.614;2023-07-13T03:30:59;456.30;;;406.50;;
52642;SDS011;38531;53.296;6.614;2023-07-13T03:33:29;459.33;;;409.70;;
52642;SDS011;38531;53.296;6.614;2023-07-13T03:35:55;463.38;;;394.88;;
52642;SDS011;38531;53.296;6.614;2023-07-13T03:38:21;714.83;;;649.25;;
52642;SDS011;38531;53.296;6.614;2023-07-13T03:40:47;467.95;;;417.58;;
52642;SDS011;38531;53.296;6.614;2023-07-13T03:43:12;438.25;;;390.70;;
52642;SDS011;38531;53.296;6.614;2023-07-13T03:45:38;713.72;;;650.63;;
52642;SDS011;38531;53.296;6.614;2023-07-13T03:48:04;423.33;;;379.45;;
52642;SDS011;38531;53.296;6.614;2023-07-13T03:50:30;426.83;;;386.27;;
52642;SDS011;38531;53.296;6.614;2023-07-13T03:52:57;429.30;;;390.73;;
52642;SDS011;38531;53.296;6.614;2023-07-13T03:55:23;680.03;;;626.70;;
52642;SDS011;38531;53.296;6.614;2023-07-13T03:57:53;681.92;;;628.58;;
52642;SDS011;38531;53.296;6.614;2023-07-13T04:00:23;399.17;;;369.30;;
52642;SDS011;38531;53.296;6.614;2023-07-13T04:02:49;379.20;;;355.02;;
52642;SDS011;38531;53.296;6.614;2023-07-13T04:05:15;366.30;;;343.50;;
52642;SDS011;38531;53.296;6.614;2023-07-13T04:07:41;359.58;;;338.20;;
52642;SDS011;38531;53.296;6.614;2023-07-13T04:10:07;343.08;;;322.95;;
52642;SDS011;38531;53.296;6.614;2023-07-13T04:12:33;597.95;;;559.53;;
52642;SDS011;38531;53.296;6.614;2023-07-13T04:14:59;320.10;;;303.20;;
52642;SDS011;38531;53.296;6.614;2023-07-13T04:17:24;562.00;;;525.97;;
52642;SDS011;38531;53.296;6.614;2023-07-13T04:19:50;605.78;;;566.42;;
52642;SDS011;38531;53.296;6.614;2023-07-13T04:22:16;556.42;;;521.45;;
52642;SDS011;38531;53.296;6.614;2023-07-13T04:24:42;522.10;;;488.73;;
52642;SDS011;38531;53.296;6.614;2023-07-13T04:27:07;309.15;;;292.83;;
52642;SDS011;38531;53.296;6.614;2023-07-13T04:29:33;538.65;;;504.55;;
52642;SDS011;38531;53.296;6.614;2023-07-13T04:31:59;238.23;;;225.68;;
52642;SDS011;38531;53.296;6.614;2023-07-13T04:34:24;168.85;;;159.70;;
52642;SDS011;38531;53.296;6.614;2023-07-13T04:36:50;235.18;;;218.63;;
52642;SDS011;38531;53.296;6.614;2023-07-13T04:39:16;452.33;;;423.88;;
52642;SDS011;38531;53.296;6.614;2023-07-13T04:41:42;252.43;;;239.38;;
52642;SDS011;38531;53.296;6.614;2023-07-13T04:44:07;278.80;;;264.15;;
52642;SDS011;38531;53.296;6.614;2023-07-13T04:46:33;562.22;;;526.40;;
52642;SDS011;38531;53.296;6.614;2023-07-13T04:48:59;329.02;;;310.65;;
52642;SDS011;38531;53.296;6.614;2023-07-13T04:51:25;681.20;;;633.33;;
52642;SDS011;38531;53.296;6.614;2023-07-13T04:53:51;660.72;;;614.60;;
52642;SDS011;38531;53.296;6.614;2023-07-13T04:56:17;356.50;;;332.05;;
52642;SDS011;38531;53.296;6.614;2023-07-13T04:58:44;682.17;;;633.47;;
52642;SDS011;38531;53.296;6.614;2023-07-13T05:01:10;675.17;;;627.58;;
52642;SDS011;38531;53.296;6.614;2023-07-13T05:03:36;394.25;;;368.35;;
52642;SDS011;38531;53.296;6.614;2023-07-13T05:06:05;335.83;;;315.95;;
52642;SDS011;38531;53.296;6.614;2023-07-13T05:08:35;650.92;;;607.80;;
52642;SDS011;38531;53.296;6.614;2023-07-13T05:11:01;615.35;;;574.85;;
52642;SDS011;38531;53.296;6.614;2023-07-13T05:13:28;627.67;;;586.83;;
52642;SDS011;38531;53.296;6.614;2023-07-13T05:15:58;308.45;;;291.88;;
52642;SDS011;38531;53.296;6.614;2023-07-13T05:18:26;370.70;;;348.33;;
52642;SDS011;38531;53.296;6.614;2023-07-13T05:20:59;659.97;;;615.90;;
52642;SDS011;38531;53.296;6.614;2023-07-13T05:23:25;596.08;;;557.80;;
52642;SDS011;38531;53.296;6.614;2023-07-13T05:25:51;401.00;;;375.08;;
52642;SDS011;38531;53.296;6.614;2023-07-13T05:28:17;617.65;;;577.00;;
52642;SDS011;38531;53.296;6.614;2023-07-13T05:30:46;675.53;;;630.33;;
52642;SDS011;38531;53.296;6.614;2023-07-13T05:33:13;338.17;;;320.30;;
52642;SDS011;38531;53.296;6.614;2023-07-13T05:35:38;308.67;;;293.05;;
52642;SDS011;38531;53.296;6.614;2023-07-13T05:38:04;356.05;;;337.02;;
52642;SDS011;38531;53.296;6.614;2023-07-13T05:40:30;413.23;;;386.00;;
52642;SDS011;38531;53.296;6.614;2023-07-13T05:42:55;641.83;;;599.65;;
52642;SDS011;38531;53.296;6.614;2023-07-13T05:45:21;671.67;;;626.75;;
52642;SDS011;38531;53.296;6.614;2023-07-13T05:47:47;358.90;;;339.55;;
52642;SDS011;38531;53.296;6.614;2023-07-13T05:50:12;307.63;;;291.83;;
52642;SDS011;38531;53.296;6.614;2023-07-13T05:52:38;580.65;;;542.78;;
52642;SDS011;38531;53.296;6.614;2023-07-13T05:55:04;312.67;;;296.45;;
52642;SDS011;38531;53.296;6.614;2023-07-13T05:57:30;290.67;;;275.75;;
52642;SDS011;38531;53.296;6.614;2023-07-13T06:00:03;534.78;;;500.13;;
52642;SDS011;38531;53.296;6.614;2023-07-13T06:02:35;278.33;;;263.80;;
52642;SDS011;38531;53.296;6.614;2023-07-13T06:05:00;450.90;;;420.75;;
52642;SDS011;38531;53.296;6.614;2023-07-13T06:07:26;479.95;;;448.40;;
52642;SDS011;38531;53.296;6.614;2023-07-13T06:09:52;472.63;;;441.00;;
52642;SDS011;38531;53.296;6.614;2023-07-13T06:12:18;417.17;;;389.45;;
52642;SDS011;38531;53.296;6.614;2023-07-13T06:14:43;410.90;;;383.40;;
52642;SDS011;38531;53.296;6.614;2023-07-13T06:17:09;399.88;;;372.75;;
52642;SDS011;38531;53.296;6.614;2023-07-13T06:19:35;184.73;;;174.50;;
52642;SDS011;38531;53.296;6.614;2023-07-13T06:22:01;351.27;;;326.90;;
52642;SDS011;38531;53.296;6.614;2023-07-13T06:24:27;321.55;;;298.77;;
52642;SDS011;38531;53.296;6.614;2023-07-13T06:26:53;316.73;;;294.00;;
52642;SDS011;38531;53.296;6.614;2023-07-13T06:29:18;226.57;;;214.13;;
52642;SDS011;38531;53.296;6.614;2023-07-13T06:31:44;275.35;;;260.25;;
52642;SDS011;38531;53.296;6.614;2023-07-13T06:34:10;572.28;;;534.53;;
52642;SDS011;38531;53.296;6.614;2023-07-13T06:36:35;402.55;;;379.65;;
52642;SDS011;38531;53.296;6.614;2023-07-13T06:39:01;753.35;;;700.47;;
52642;SDS011;38531;53.296;6.614;2023-07-13T06:41:27;474.02;;;437.10;;
52642;SDS011;38531;53.296;6.614;2023-07-13T06:43:53;533.38;;;480.55;;
52642;SDS011;38531;53.296;6.614;2023-07-13T06:46:22;529.22;;;478.85;;
52642;SDS011;38531;53.296;6.614;2023-07-13T06:48:48;810.28;;;748.17;;
52642;SDS011;38531;53.296;6.614;2023-07-13T06:51:13;593.25;;;509.10;;
52642;SDS011;38531;53.296;6.614;2023-07-13T06:53:39;680.50;;;520.17;;
52642;SDS011;38531;53.296;6.614;2023-07-13T06:56:05;852.95;;;761.22;;
52642;SDS011;38531;53.296;6.614;2023-07-13T06:58:32;634.00;;;515.30;;
52642;SDS011;38531;53.296;6.614;2023-07-13T07:00:59;927.50;;;774.72;;
52642;SDS011;38531;53.296;6.614;2023-07-13T07:03:24;738.00;;;536.13;;
52642;SDS011;38531;53.296;6.614;2023-07-13T07:05:50;1034.63;;;781.25;;
52642;SDS011;38531;53.296;6.614;2023-07-13T07:08:16;908.03;;;559.95;;
52642;SDS011;38531;53.296;6.614;2023-07-13T07:10:42;1076.85;;;786.08;;
52642;SDS011;38531;53.296;6.614;2023-07-13T07:13:07;1011.00;;;783.88;;
52642;SDS011;38531;53.296;6.614;2023-07-13T07:15:34;899.65;;;562.75;;
52642;SDS011;38531;53.296;6.614;2023-07-13T07:18:00;848.30;;;554.83;;
52642;SDS011;38531;53.296;6.614;2023-07-13T07:20:25;813.08;;;552.22;;
52642;SDS011;38531;53.296;6.614;2023-07-13T07:22:52;954.00;;;792.72;;
52642;SDS011;38531;53.296;6.614;2023-07-13T07:25:17;915.58;;;570.42;;
52642;SDS011;38531;53.296;6.614;2023-07-13T07:27:43;980.97;;;578.40;;
52642;SDS011;38531;53.296;6.614;2023-07-13T07:30:09;1178.65;;;802.92;;
52642;SDS011;38531;53.296;6.614;2023-07-13T07:32:36;1142.50;;;801.47;;
52642;SDS011;38531;53.296;6.614;2023-07-13T07:35:02;939.28;;;576.95;;
52642;SDS011;38531;53.296;6.614;2023-07-13T07:37:27;1066.05;;;812.55;;
52642;SDS011;38531;53.296;6.614;2023-07-13T07:39:53;1006.42;;;812.72;;
52642;SDS011;38531;53.296;6.614;2023-07-13T07:42:19;747.08;;;562.83;;
52642;SDS011;38531;53.296;6.614;2023-07-13T07:44:45;742.00;;;558.25;;
52642;SDS011;38531;53.296;6.614;2023-07-13T07:47:11;645.42;;;563.38;;
52642;SDS011;38531;53.296;6.614;2023-07-13T07:49:36;635.13;;;564.95;;
52642;SDS011;38531;53.296;6.614;2023-07-13T07:52:03;899.97;;;820.47;;
52642;SDS011;38531;53.296;6.614;2023-07-13T07:54:29;892.55;;;818.10;;
52642;SDS011;38531;53.296;6.614;2023-07-13T07:56:55;895.80;;;815.95;;
52642;SDS011;38531;53.296;6.614;2023-07-13T07:59:20;609.20;;;552.03;;
52642;SDS011;38531;53.296;6.614;2023-07-13T08:01:46;848.10;;;787.00;;
52642;SDS011;38531;53.296;6.614;2023-07-13T08:04:15;843.78;;;783.85;;
52642;SDS011;38531;53.296;6.614;2023-07-13T08:06:41;805.33;;;748.85;;
52642;SDS011;38531;53.296;6.614;2023-07-13T08:09:07;504.27;;;472.90;;
52642;SDS011;38531;53.296;6.614;2023-07-13T08:11:33;511.00;;;477.75;;
52642;SDS011;38531;53.296;6.614;2023-07-13T08:13:59;693.53;;;645.50;;
52642;SDS011;38531;53.296;6.614;2023-07-13T08:16:24;786.65;;;731.58;;
52642;SDS011;38531;53.296;6.614;2023-07-13T08:18:51;561.55;;;523.30;;
52642;SDS011;38531;53.296;6.614;2023-07-13T08:21:16;811.15;;;753.38;;
52642;SDS011;38531;53.296;6.614;2023-07-13T08:23:45;509.70;;;475.77;;
52642;SDS011;38531;53.296;6.614;2023-07-13T08:26:11;733.58;;;682.22;;
52642;SDS011;38531;53.296;6.614;2023-07-13T08:28:37;444.13;;;415.67;;
52642;SDS011;38531;53.296;6.614;2023-07-13T08:31:03;547.17;;;508.35;;
52642;SDS011;38531;53.296;6.614;2023-07-13T08:33:30;794.15;;;740.00;;
52642;SDS011;38531;53.296;6.614;2023-07-13T08:35:56;499.88;;;468.45;;
52642;SDS011;38531;53.296;6.614;2023-07-13T08:38:22;774.08;;;721.80;;
52642;SDS011;38531;53.296;6.614;2023-07-13T08:40:50;815.45;;;759.53;;
52642;SDS011;38531;53.296;6.614;2023-07-13T08:43:18;515.83;;;480.88;;
52642;SDS011;38531;53.296;6.614;2023-07-13T08:45:51;877.72;;;810.03;;
52642;SDS011;38531;53.296;6.614;2023-07-13T08:48:21;531.65;;;493.50;;
52642;SDS011;38531;53.296;6.614;2023-07-13T08:53:42;849.80;;;788.38;;
52642;SDS011;38531;53.296;6.614;2023-07-13T08:56:16;523.28;;;485.23;;
52642;SDS011;38531;53.296;6.614;2023-07-13T08:58:45;518.15;;;482.05;;
52642;SDS011;38531;53.296;6.614;2023-07-13T09:04:21;847.85;;;786.00;;
52642;SDS011;38531;53.296;6.614;2023-07-13T09:06:57;562.15;;;513.03;;
52642;SDS011;38531;53.296;6.614;2023-07-13T09:12:35;890.38;;;818.35;;
52642;SDS011;38531;53.296;6.614;2023-07-13T09:15:29;861.03;;;797.53;;
52642;SDS011;38531;53.296;6.614;2023-07-13T09:18:14;506.10;;;470.95;;
52642;SDS011;38531;53.296;6.614;2023-07-13T09:20:57;612.17;;;526.15;;
52642;SDS011;38531;53.296;6.614;2023-07-13T09:23:28;883.83;;;792.67;;
52642;SDS011;38531;53.296;6.614;2023-07-13T09:26:28;877.28;;;794.78;;
52642;SDS011;38531;53.296;6.614;2023-07-13T09:28:51;553.05;;;502.00;;
52642;SDS011;38531;53.296;6.614;2023-07-13T09:33:54;869.30;;;798.58;;
52642;SDS011;38531;53.296;6.614;2023-07-13T09:36:21;522.55;;;483.08;;
52642;SDS011;38531;53.296;6.614;2023-07-13T09:38:49;860.70;;;795.88;;
52642;SDS011;38531;53.296;6.614;2023-07-13T09:44:11;515.72;;;483.98;;
52642;SDS011;38531;53.296;6.614;2023-07-13T09:46:42;446.00;;;421.35;;
52642;SDS011;38531;53.296;6.614;2023-07-13T09:49:10;843.97;;;782.47;;
52642;SDS011;38531;53.296;6.614;2023-07-13T09:51:38;458.27;;;432.23;;
52642;SDS011;38531;53.296;6.614;2023-07-13T09:54:17;473.02;;;445.23;;
52642;SDS011;38531;53.296;6.614;2023-07-13T09:56:45;713.08;;;664.63;;
52642;SDS011;38531;53.296;6.614;2023-07-13T09:59:20;440.23;;;416.38;;
52642;SDS011;38531;53.296;6.614;2023-07-13T10:01:49;500.83;;;470.15;;
52642;SDS011;38531;53.296;6.614;2023-07-13T10:04:18;715.42;;;667.35;;
52642;SDS011;38531;53.296;6.614;2023-07-13T10:06:45;468.73;;;441.85;;
52642;SDS011;38531;53.296;6.614;2023-07-13T10:09:17;654.13;;;609.08;;
52642;SDS011;38531;53.296;6.614;2023-07-13T10:11:44;696.90;;;649.00;;
52642;SDS011;38531;53.296;6.614;2023-07-13T10:14:13;632.90;;;589.60;;
52642;SDS011;38531;53.296;6.614;2023-07-13T10:16:42;549.30;;;510.42;;
52642;SDS011;38531;53.296;6.614;2023-07-13T10:19:19;368.38;;;347.90;;
52642;SDS011;38531;53.296;6.614;2023-07-13T10:21:55;542.10;;;504.08;;
52642;SDS011;38531;53.296;6.614;2023-07-13T10:24:27;527.58;;;490.50;;
52642;SDS011;38531;53.296;6.614;2023-07-13T10:27:05;272.02;;;257.08;;
52642;SDS011;38531;53.296;6.614;2023-07-13T10:32:17;308.60;;;291.15;;
52642;SDS011;38531;53.296;6.614;2023-07-13T10:34:46;592.90;;;551.58;;
52642;SDS011;38531;53.296;6.614;2023-07-13T10:37:18;620.58;;;577.13;;
52642;SDS011;38531;53.296;6.614;2023-07-13T10:39:50;358.17;;;337.17;;
52642;SDS011;38531;53.296;6.614;2023-07-13T10:42:25;636.40;;;592.40;;
52642;SDS011;38531;53.296;6.614;2023-07-13T10:45:01;391.63;;;368.92;;
52642;SDS011;38531;53.296;6.614;2023-07-13T10:47:26;647.25;;;602.75;;
52642;SDS011;38531;53.296;6.614;2023-07-13T10:49:54;363.55;;;343.73;;
52642;SDS011;38531;53.296;6.614;2023-07-13T11:00:57;601.38;;;559.33;;
52642;SDS011;38531;53.296;6.614;2023-07-13T11:03:28;415.08;;;392.52;;
52642;SDS011;38531;53.296;6.614;2023-07-13T11:06:09;733.38;;;682.63;;
52642;SDS011;38531;53.296;6.614;2023-07-13T11:25:48;956.15;;;871.38;;
52642;SDS011;38531;53.296;6.614;2023-07-13T11:35:31;666.30;;;602.70;;
52642;SDS011;38531;53.296;6.614;2023-07-13T11:38:18;675.40;;;609.60;;
52642;SDS011;38531;53.296;6.614;2023-07-13T11:41:34;665.58;;;602.78;;
52642;SDS011;38531;53.296;6.614;2023-07-13T11:44:28;945.80;;;871.70;;
52642;SDS011;38531;53.296;6.614;2023-07-13T11:50:04;466.85;;;440.52;;
52642;SDS011;38531;53.296;6.614;2023-07-13T12:02:16;640.47;;;585.42;;
52642;SDS011;38531;53.296;6.614;2023-07-13T12:07:52;657.88;;;595.90;;
52642;SDS011;38531;53.296;6.614;2023-07-13T12:23:28;937.25;;;864.67;;
52642;SDS011;38531;53.296;6.614;2023-07-13T12:33:45;482.27;;;454.13;;
52642;SDS011;38531;53.296;6.614;2023-07-13T12:46:37;407.05;;;375.33;;
52642;SDS011;38531;53.296;6.614;2023-07-13T12:49:04;275.92;;;259.85;;
52642;SDS011;38531;53.296;6.614;2023-07-13T12:51:32;499.15;;;460.98;;
52642;SDS011;38531;53.296;6.614;2023-07-13T12:54:05;256.42;;;241.82;;
52642;SDS011;38531;53.296;6.614;2023-07-13T12:56:38;332.38;;;313.85;;
52642;SDS011;38531;53.296;6.614;2023-07-13T12:59:04;501.85;;;464.45;;
52642;SDS011;38531;53.296;6.614;2023-07-13T13:01:33;294.85;;;278.27;;
52642;SDS011;38531;53.296;6.614;2023-07-13T13:04:02;519.92;;;480.98;;
52642;SDS011;38531;53.296;6.614;2023-07-13T13:06:31;578.30;;;536.10;;
52642;SDS011;38531;53.296;6.614;2023-07-13T13:08:58;305.58;;;288.08;;
52642;SDS011;38531;53.296;6.614;2023-07-13T13:11:25;249.73;;;235.20;;
52642;SDS011;38531;53.296;6.614;2023-07-13T13:13:53;452.08;;;417.65;;
52642;SDS011;38531;53.296;6.614;2023-07-13T13:18:51;488.67;;;451.98;;
52642;SDS011;38531;53.296;6.614;2023-07-13T13:21:19;313.05;;;295.27;;
52642;SDS011;38531;53.296;6.614;2023-07-13T13:23:45;291.85;;;274.92;;
52642;SDS011;38531;53.296;6.614;2023-07-13T13:26:12;321.88;;;303.42;;
52642;SDS011;38531;53.296;6.614;2023-07-13T13:28:40;443.38;;;409.13;;
52642;SDS011;38531;53.296;6.614;2023-07-13T13:31:07;488.98;;;451.75;;
52642;SDS011;38531;53.296;6.614;2023-07-13T13:33:37;184.95;;;173.43;;
52642;SDS011;38531;53.296;6.614;2023-07-13T13:36:11;204.18;;;191.98;;
52642;SDS011;38531;53.296;6.614;2023-07-13T13:46:26;610.33;;;564.90;;
52642;SDS011;38531;53.296;6.614;2023-07-13T13:48:55;776.60;;;722.97;;
52642;SDS011;38531;53.296;6.614;2023-07-13T13:51:23;704.85;;;654.25;;
52642;SDS011;38531;53.296;6.614;2023-07-13T13:53:52;733.20;;;681.85;;
52642;SDS011;38531;53.296;6.614;2023-07-13T13:56:18;773.55;;;719.92;;
52642;SDS011;38531;53.296;6.614;2023-07-13T14:05:13;547.58;;;514.60;;
52642;SDS011;38531;53.296;6.614;2023-07-13T14:07:41;827.15;;;771.33;;
52642;SDS011;38531;53.296;6.614;2023-07-13T14:10:15;946.42;;;872.67;;
52642;SDS011;38531;53.296;6.614;2023-07-13T14:12:44;954.47;;;875.58;;
52642;SDS011;38531;53.296;6.614;2023-07-13T14:18:53;748.85;;;622.42;;
52642;SDS011;38531;53.296;6.614;2023-07-13T14:21:22;639.38;;;584.65;;
52642;SDS011;38531;53.296;6.614;2023-07-13T14:23:48;944.45;;;871.15;;
52642;SDS011;38531;53.296;6.614;2023-07-13T14:26:16;924.72;;;857.30;;
52642;SDS011;38531;53.296;6.614;2023-07-13T14:28:45;630.22;;;576.72;;
52642;SDS011;38531;53.296;6.614;2023-07-13T14:31:16;606.13;;;562.58;;
52642;SDS011;38531;53.296;6.614;2023-07-13T14:33:43;641.38;;;587.45;;
52642;SDS011;38531;53.296;6.614;2023-07-13T14:38:55;646.60;;;589.85;;
52642;SDS011;38531;53.296;6.614;2023-07-13T14:41:25;952.03;;;876.45;;
52642;SDS011;38531;53.296;6.614;2023-07-13T14:43:52;1074.57;;;654.58;;
52642;SDS011;38531;53.296;6.614;2023-07-13T14:46:28;1160.45;;;665.67;;
52642;SDS011;38531;53.296;6.614;2023-07-13T14:49:02;1316.05;;;902.58;;
52642;SDS011;38531;53.296;6.614;2023-07-13T14:51:28;979.85;;;650.20;;
52642;SDS011;38531;53.296;6.614;2023-07-13T14:53:54;1160.15;;;892.92;;
52642;SDS011;38531;53.296;6.614;2023-07-13T14:56:20;1190.68;;;684.03;;
52642;SDS011;38531;53.296;6.614;2023-07-13T14:58:46;1109.45;;;668.25;;
52642;SDS011;38531;53.296;6.614;2023-07-13T15:01:12;1210.05;;;909.92;;
52642;SDS011;38531;53.296;6.614;2023-07-13T15:03:46;1034.90;;;660.85;;
52642;SDS011;38531;53.296;6.614;2023-07-13T15:06:14;1104.65;;;659.45;;
52642;SDS011;38531;53.296;6.614;2023-07-13T15:08:43;1218.30;;;897.55;;
52642;SDS011;38531;53.296;6.614;2023-07-13T15:11:09;1146.55;;;896.30;;
52642;SDS011;38531;53.296;6.614;2023-07-13T15:13:38;1088.43;;;890.90;;
52642;SDS011;38531;53.296;6.614;2023-07-13T15:16:10;939.60;;;634.85;;
52642;SDS011;38531;53.296;6.614;2023-07-13T15:18:44;1033.32;;;885.50;;
52642;SDS011;38531;53.296;6.614;2023-07-13T15:21:11;887.53;;;628.08;;
52642;SDS011;38531;53.296;6.614;2023-07-13T15:23:42;826.08;;;620.20;;
52642;SDS011;38531;53.296;6.614;2023-07-13T15:26:11;985.65;;;881.47;;
52642;SDS011;38531;53.296;6.614;2023-07-13T15:28:42;1047.38;;;879.58;;
52642;SDS011;38531;53.296;6.614;2023-07-13T15:31:41;1274.65;;;902.17;;
52642;SDS011;38531;53.296;6.614;2023-07-13T15:34:04;1327.22;;;904.47;;
52642;SDS011;38531;53.296;6.614;2023-07-13T15:36:35;1174.72;;;905.85;;
52642;SDS011;38531;53.296;6.614;2023-07-13T15:39:01;686.90;;;613.13;;
52642;SDS011;38531;53.296;6.614;2023-07-13T15:41:27;716.63;;;617.28;;
52642;SDS011;38531;53.296;6.614;2023-07-13T15:43:58;810.40;;;623.58;;
52642;SDS011;38531;53.296;6.614;2023-07-13T15:46:26;970.88;;;885.83;;
52642;SDS011;38531;53.296;6.614;2023-07-13T15:48:53;982.33;;;889.28;;
52642;SDS011;38531;53.296;6.614;2023-07-13T15:51:26;973.08;;;889.13;;
52642;SDS011;38531;53.296;6.614;2023-07-13T15:53:54;670.85;;;606.60;;
52642;SDS011;38531;53.296;6.614;2023-07-13T15:56:25;649.13;;;589.50;;
52642;SDS011;38531;53.296;6.614;2023-07-13T15:58:53;744.78;;;633.72;;
52642;SDS011;38531;53.296;6.614;2023-07-13T16:01:21;900.38;;;648.92;;